Time;durP1;ratioP1;P1;durP2;ratioP2;P2;SDS_P1;SDS_P2;PMS_P1;PMS_P2;Temp;Humidity;BMP_temperature;BMP_pressure;BME280_temperature;BME280_humidity;BME280_pressure;Samples;Min_cycle;Max_cycle;Signal;HPM_P1;HPM_P2
2022/03/01 00:02:06;;;;;;;;;38.25;32.00;;;;;8.58;50.15;102412.38;5084338;27;45573;-81
2022/03/01 00:04:31;;;;;;;;;45.50;30.25;;;;;8.54;50.25;102411.31;5087643;27;63422;-81
2022/03/01 00:06:56;;;;;;;;;38.75;29.25;;;;;8.52;50.32;102413.00;5088251;27;47376;-81
2022/03/01 00:09:22;;;;;;;;;42.00;26.00;;;;;8.50;50.10;102416.38;5082221;27;54701;-81
2022/03/01 00:11:47;;;;;;;;;46.25;31.75;;;;;8.40;50.11;102405.41;5083641;27;45354;-81
2022/03/01 00:14:12;;;;;;;;;37.25;32.75;;;;;8.45;50.17;102415.25;5068928;27;61049;-81
2022/03/01 00:16:38;;;;;;;;;38.50;32.00;;;;;8.41;50.19;102406.31;5058903;28;45456;-81
2022/03/01 00:19:03;;;;;;;;;41.00;32.25;;;;;8.39;50.53;102408.00;5058882;27;45487;-81
2022/03/01 00:21:29;;;;;;;;;35.00;27.00;;;;;8.38;50.43;102411.47;5078157;27;49090;-81
2022/03/01 00:23:55;;;;;;;;;45.00;33.25;;;;;8.35;50.62;102408.63;5096397;27;47288;-80
2022/03/01 00:26:20;;;;;;;;;41.25;34.25;;;;;8.31;50.76;102397.09;5092824;27;45397;-81
2022/03/01 00:28:46;;;;;;;;;40.75;33.50;;;;;8.30;50.53;102405.78;5090024;27;45562;-80
2022/03/01 00:31:11;;;;;;;;;34.25;28.50;;;;;8.28;50.87;102396.94;5094669;27;45495;-80
2022/03/01 00:33:37;;;;;;;;;37.50;33.75;;;;;8.22;50.92;102393.16;5083167;27;47430;-81
2022/03/01 00:36:02;;;;;;;;;38.25;33.75;;;;;8.23;50.84;102389.69;5090042;27;58588;-80
2022/03/01 00:38:28;;;;;;;;;33.25;29.00;;;;;8.21;51.07;102381.72;5075294;27;45474;-81
2022/03/01 00:40:54;;;;;;;;;41.25;32.75;;;;;8.18;51.15;102394.72;5082634;27;54517;-81
2022/03/01 00:43:20;;;;;;;;;38.75;32.25;;;;;8.13;51.27;102388.34;5093693;27;46442;-81
2022/03/01 00:45:45;;;;;;;;;35.50;32.75;;;;;8.14;51.32;102392.78;5093040;27;45406;-80
2022/03/01 00:48:11;;;;;;;;;43.25;34.50;;;;;8.14;51.55;102392.78;5096259;27;45329;-81
2022/03/01 00:50:36;;;;;;;;;49.00;37.50;;;;;8.12;51.40;102391.81;5097913;27;57305;-80
2022/03/01 00:53:01;;;;;;;;;49.50;40.00;;;;;8.11;51.52;102404.06;5095484;27;63992;-81
2022/03/01 00:55:27;;;;;;;;;40.25;33.50;;;;;8.12;51.69;102404.97;5096165;27;45549;-81
2022/03/01 00:57:52;;;;;;;;;49.00;37.25;;;;;8.09;51.67;102408.34;5086040;27;45148;-81
2022/03/01 01:00:18;;;;;;;;;49.75;38.75;;;;;8.09;51.86;102410.06;5080914;27;52726;-81
2022/03/01 01:02:43;;;;;;;;;43.50;39.50;;;;;8.10;51.65;102407.53;5087692;27;46386;-81
2022/03/01 01:05:09;;;;;;;;;56.75;42.50;;;;;8.09;51.87;102400.44;5082820;27;51465;-81
2022/03/01 01:07:34;;;;;;;;;46.50;39.00;;;;;8.09;51.83;102395.19;5082096;27;45403;-81
2022/03/01 01:09:59;;;;;;;;;53.25;38.00;;;;;8.10;51.79;102389.13;5079659;27;53700;-81
2022/03/01 01:12:25;;;;;;;;;41.75;37.00;;;;;8.09;51.77;102389.94;5094302;27;46098;-81
2022/03/01 01:14:50;;;;;;;;;46.50;37.75;;;;;8.08;52.08;102387.22;5089503;27;59049;-81
2022/03/01 01:17:16;;;;;;;;;50.50;42.00;;;;;8.05;52.02;102390.63;5078026;27;47864;-81
2022/03/01 01:19:41;;;;;;;;;48.75;38.25;;;;;8.06;52.01;102400.31;5061126;28;50564;-81
2022/03/01 01:24:50;;;;;;;;;57.25;42.00;;;;;8.03;52.38;102399.28;5082322;27;45308;-81
2022/03/01 01:27:16;;;;;;;;;59.25;44.75;;;;;8.02;52.16;102395.75;5108927;27;45491;-80
2022/03/01 01:29:41;;;;;;;;;53.00;42.00;;;;;8.03;52.26;102380.84;5089661;27;46235;-81
2022/03/01 01:32:07;;;;;;;;;54.00;43.50;;;;;8.01;52.38;102386.06;5087120;27;64197;-81
2022/03/01 01:34:33;;;;;;;;;58.50;44.50;;;;;8.02;52.14;102390.47;5092638;27;45281;-81
2022/03/01 01:36:58;;;;;;;;;59.25;44.50;;;;;8.02;52.19;102384.31;5079926;27;58503;-81
2022/03/01 01:39:23;;;;;;;;;56.25;44.00;;;;;8.00;52.29;102380.75;5079406;27;56274;-81
2022/03/01 01:41:49;;;;;;;;;57.25;44.75;;;;;7.99;52.50;102384.16;5082402;27;61874;-81
2022/03/01 01:44:14;;;;;;;;;57.25;46.50;;;;;7.92;52.53;102369.84;5084117;27;52894;-81
2022/03/01 01:46:40;;;;;;;;;59.50;43.25;;;;;7.96;52.49;102379.69;5092422;27;45210;-81
2022/03/01 01:49:05;;;;;;;;;55.25;41.75;;;;;7.98;52.42;102385.00;5083759;27;52226;-81
2022/03/01 01:51:30;;;;;;;;;54.25;43.75;;;;;7.97;52.75;102386.75;5078398;27;45570;-81
2022/03/01 01:53:56;;;;;;;;;62.50;46.00;;;;;7.98;52.61;102395.53;5097002;27;45338;-81
2022/03/01 01:56:21;;;;;;;;;54.50;44.00;;;;;7.97;52.72;102385.84;5078630;27;51403;-81
2022/03/01 01:58:47;;;;;;;;;55.00;43.00;;;;;7.98;52.68;102387.63;5095931;27;45394;-81
2022/03/01 02:01:12;;;;;;;;;60.00;44.00;;;;;7.97;52.91;102391.09;5097209;27;59108;-82
2022/03/01 02:03:37;;;;;;;;;60.00;42.25;;;;;7.98;52.84;102385.91;5093965;27;51753;-81
2022/03/01 02:06:03;;;;;;;;;60.75;45.00;;;;;7.99;52.69;102389.44;5082612;27;54299;-81
2022/03/01 02:08:32;;;;;;;;;60.50;46.75;;;;;8.00;52.88;102399.16;5090105;27;46287;-81
2022/03/01 02:10:57;;;;;;;;;57.00;41.75;;;;;8.00;52.81;102386.00;5089121;27;46076;-80
2022/03/01 02:13:23;;;;;;;;;48.50;40.00;;;;;8.03;52.97;102384.38;5091939;27;45485;-81
2022/03/01 02:15:49;;;;;;;;;63.25;46.50;;;;;8.07;53.15;102385.44;5081260;27;45641;-81
2022/03/01 02:18:15;;;;;;;;;55.50;44.50;;;;;8.04;52.93;102380.97;5080766;27;45775;-81
2022/03/01 02:20:40;;;;;;;;;60.00;44.75;;;;;8.10;53.03;102396.13;5097159;27;46156;-81
2022/03/01 02:23:06;;;;;;;;;66.00;46.50;;;;;8.13;53.01;102401.50;5095813;27;59405;-81
2022/03/01 02:25:31;;;;;;;;;58.00;45.00;;;;;8.13;52.91;102402.41;5093898;27;45394;-81
2022/03/01 02:27:56;;;;;;;;;64.00;48.50;;;;;8.14;52.77;102392.78;5080694;27;56463;-81
2022/03/01 02:30:22;;;;;;;;;62.50;47.00;;;;;8.15;53.16;102384.06;5089222;27;47381;-81
2022/03/01 02:32:47;;;;;;;;;53.25;43.00;;;;;8.16;53.02;102379.72;5084122;27;54042;-81
2022/03/01 02:35:13;;;;;;;;;63.00;48.50;;;;;8.11;53.04;102369.88;5096345;27;51295;-81
2022/03/01 02:37:38;;;;;;;;;58.75;43.00;;;;;8.17;52.88;102386.78;5098219;27;45254;-82
2022/03/01 02:40:07;;;;;;;;;62.00;45.00;;;;;8.20;52.97;102382.53;5091890;27;46472;-82
2022/03/01 02:42:33;;;;;;;;;56.25;44.75;;;;;8.20;53.30;102369.38;5084600;27;45444;-81
2022/03/01 02:44:58;;;;;;;;;60.75;45.50;;;;;8.18;53.06;102370.16;5097454;27;45356;-80
2022/03/01 02:47:24;;;;;;;;;63.00;47.25;;;;;8.22;53.29;102386.16;5087629;27;45535;-80
2022/03/01 02:49:49;;;;;;;;;58.00;45.25;;;;;8.21;53.24;102381.72;5079621;27;47411;-81
2022/03/01 02:52:15;;;;;;;;;61.25;47.75;;;;;8.23;53.04;102377.41;5096942;27;45377;-81
2022/03/01 02:54:40;;;;;;;;;65.00;47.50;;;;;8.21;53.15;102380.81;5086785;27;55538;-80
2022/03/01 02:57:05;;;;;;;;;62.75;44.75;;;;;8.19;53.20;102369.31;5078822;27;57000;-81
2022/03/01 02:59:31;;;;;;;;;66.00;48.75;;;;;8.25;53.12;102383.63;5097117;27;62187;-81
2022/03/01 03:01:57;;;;;;;;;61.25;45.00;;;;;8.24;53.25;102376.56;5094024;27;45418;-81
2022/03/01 03:04:23;;;;;;;;;59.00;45.50;;;;;8.20;53.12;102371.09;5082644;27;45306;-80
2022/03/01 03:06:49;;;;;;;;;62.75;47.00;;;;;8.21;53.21;102375.56;5071876;27;45725;-80
2022/03/01 03:09:15;;;;;;;;;59.75;44.50;;;;;8.25;53.42;102388.00;5072223;27;47448;-81
2022/03/01 03:11:40;;;;;;;;;68.25;48.50;;;;;8.25;53.28;102390.63;5077907;27;45248;-81
2022/03/01 03:14:05;;;;;;;;;59.25;47.00;;;;;8.24;53.39;102399.38;5091281;27;45556;-80
2022/03/01 03:16:31;;;;;;;;;62.50;48.00;;;;;8.25;53.39;102395.88;5091926;27;45577;-81
2022/03/01 03:18:56;;;;;;;;;62.00;45.25;;;;;8.17;53.40;102376.25;5096991;27;46410;-81
2022/03/01 03:21:22;;;;;;;;;58.50;46.75;;;;;8.25;53.17;102382.75;5087252;27;45389;-80
2022/03/01 03:23:47;;;;;;;;;66.00;48.50;;;;;8.22;53.21;102374.72;5082281;27;57025;-81
2022/03/01 03:26:13;;;;;;;;;62.25;46.00;;;;;8.22;53.41;102380.88;5088919;27;49211;-80
2022/03/01 03:28:38;;;;;;;;;62.50;48.50;;;;;8.21;53.45;102371.19;5087078;27;47560;-81
2022/03/01 03:31:03;;;;;;;;;60.50;46.50;;;;;8.21;53.36;102386.09;5095250;27;58883;-81
2022/03/01 03:33:29;;;;;;;;;63.25;45.25;;;;;8.16;53.37;102366.56;5077273;27;52391;-81
2022/03/01 03:35:56;;;;;;;;;66.25;48.50;;;;;8.21;53.43;102383.47;5082026;27;45498;-81
2022/03/01 03:38:22;;;;;;;;;63.25;47.00;;;;;8.20;53.30;102377.25;5096823;27;46816;-81
2022/03/01 03:40:47;;;;;;;;;71.75;51.00;;;;;8.21;53.52;102375.56;5086197;27;45422;-81
2022/03/01 03:43:13;;;;;;;;;61.50;45.25;;;;;8.19;53.52;102371.94;5083911;27;54951;-81
2022/03/01 03:45:38;;;;;;;;;59.00;46.00;;;;;8.17;53.64;102365.72;5088888;27;54799;-81
2022/03/01 03:48:04;;;;;;;;;65.75;50.25;;;;;8.18;53.66;102372.78;5090344;27;46849;-81
2022/03/01 03:50:29;;;;;;;;;64.50;51.00;;;;;8.13;53.49;102362.94;5088061;27;45372;-80
2022/03/01 03:52:55;;;;;;;;;62.50;48.50;;;;;8.19;53.65;102370.19;5078015;27;56581;-81
2022/03/01 03:55:20;;;;;;;;;62.50;45.75;;;;;8.18;53.66;102363.16;5097337;27;45275;-81
2022/03/01 03:57:45;;;;;;;;;63.25;48.25;;;;;8.17;53.57;102344.66;5086935;27;61708;-80
2022/03/01 04:00:17;;;;;;;;;63.75;50.25;;;;;8.22;53.81;102364.19;5077529;27;45433;-81
2022/03/01 04:02:46;;;;;;;;;62.75;49.50;;;;;8.22;54.08;102358.94;5078824;27;45485;-81
2022/03/01 04:05:12;;;;;;;;;66.25;50.25;;;;;8.24;53.69;102352.00;5095156;27;45555;-81
2022/03/01 04:07:41;;;;;;;;;64.75;50.50;;;;;8.26;53.71;102346.00;5077719;27;46519;-81
2022/03/01 04:10:07;;;;;;;;;68.50;50.25;;;;;8.27;54.00;102339.00;5096652;27;45434;-81
2022/03/01 04:12:33;;;;;;;;;64.00;49.25;;;;;8.30;53.80;102350.53;5082418;27;45298;-81
2022/03/01 04:14:58;;;;;;;;;66.00;48.00;;;;;8.30;54.08;102353.16;5076794;27;45191;-81
2022/03/01 04:17:24;;;;;;;;;65.75;49.00;;;;;8.31;53.97;102355.00;5096071;27;63410;-81
2022/03/01 04:19:49;;;;;;;;;62.00;49.50;;;;;8.27;54.00;102350.41;5100076;27;45323;-80
2022/03/01 04:22:14;;;;;;;;;54.75;46.00;;;;;8.37;54.00;102368.44;5082569;27;45497;-81
2022/03/01 04:24:40;;;;;;;;;58.75;47.25;;;;;8.39;53.86;102364.16;5076547;27;45537;-80
2022/03/01 04:27:05;;;;;;;;;59.75;47.50;;;;;8.42;53.80;102371.28;5092397;27;47703;-81
2022/03/01 04:29:31;;;;;;;;;66.25;47.00;;;;;8.43;53.69;102367.81;5076590;27;45448;-81
2022/03/01 04:31:56;;;;;;;;;57.75;46.75;;;;;8.48;53.85;102358.41;5084690;27;45340;-81
2022/03/01 04:34:21;;;;;;;;;54.25;43.75;;;;;8.52;53.84;102356.78;5088170;27;45519;-81
2022/03/01 04:36:47;;;;;;;;;46.00;35.25;;;;;8.54;53.76;102361.28;5085633;27;54680;-81
2022/03/01 04:39:12;;;;;;;;;57.00;41.00;;;;;8.61;53.60;102365.09;5098194;27;45374;-81
2022/03/01 04:41:38;;;;;;;;;45.00;37.00;;;;;8.64;53.54;102365.22;5096496;27;48441;-80
2022/03/01 04:44:05;;;;;;;;;47.00;37.00;;;;;8.70;52.68;102362.88;5079676;27;45558;-81
2022/03/01 04:46:31;;;;;;;;;46.50;39.25;;;;;8.73;52.95;102347.16;5085361;27;46726;-81
2022/03/01 04:48:57;;;;;;;;;45.25;38.75;;;;;8.81;52.92;102360.69;5086961;27;45594;-81
2022/03/01 04:51:22;;;;;;;;;42.00;35.00;;;;;8.81;52.81;102361.59;5103192;27;58209;-80
2022/03/01 04:53:49;;;;;;;;;44.00;36.25;;;;;8.89;52.36;102364.53;5084453;27;45487;-81
2022/03/01 04:56:14;;;;;;;;;44.50;35.25;;;;;8.93;52.95;102354.19;5093086;27;46350;-81
2022/03/01 04:58:39;;;;;;;;;43.25;38.25;;;;;8.99;52.44;102357.91;5094158;27;45528;-80
2022/03/01 05:01:05;;;;;;;;;37.25;33.75;;;;;9.03;52.08;102354.59;5093098;27;47341;-81
2022/03/01 05:03:30;;;;;;;;;43.75;29.25;;;;;9.04;52.15;102351.09;5102038;27;45346;-80
2022/03/01 05:05:56;;;;;;;;;47.00;36.75;;;;;9.09;52.05;102354.84;5081853;27;61957;-81
2022/03/01 05:08:21;;;;;;;;;35.00;35.00;;;;;9.09;52.24;102352.19;5091460;27;45388;-81
2022/03/01 05:10:46;;;;;;;;;39.00;35.75;;;;;9.10;52.17;102349.63;5085187;27;46052;-80
2022/03/01 05:13:12;;;;;;;;;47.00;39.00;;;;;9.10;52.19;102352.25;5087530;27;45585;-81
2022/03/01 05:15:37;;;;;;;;;47.50;39.50;;;;;9.12;52.42;102352.34;5082939;27;49270;-80
2022/03/01 05:18:03;;;;;;;;;53.75;38.75;;;;;9.11;52.61;102345.28;5088101;27;48358;-81
2022/03/01 05:20:28;;;;;;;;;39.00;34.00;;;;;9.09;52.33;102350.47;5079104;27;49468;-81
2022/03/01 05:22:54;;;;;;;;;39.50;33.25;;;;;9.10;52.43;102341.72;5079401;27;45654;-80
2022/03/01 05:25:21;;;;;;;;;40.00;34.75;;;;;9.11;52.58;102350.53;5084221;27;46250;-81
2022/03/01 05:27:47;;;;;;;;;41.25;34.25;;;;;9.08;52.42;102347.78;5098078;27;45583;-81
2022/03/01 05:30:13;;;;;;;;;42.75;37.00;;;;;9.14;52.36;102366.47;5094966;27;45496;-81
2022/03/01 05:32:40;;;;;;;;;51.00;36.25;;;;;9.14;52.28;102354.19;5099083;27;45492;-80
2022/03/01 05:35:09;;;;;;;;;41.50;37.75;;;;;9.11;52.42;102338.28;5088270;27;46645;-81
2022/03/01 05:37:35;;;;;;;;;41.50;34.25;;;;;9.12;52.51;102333.91;5079640;27;45215;-81
2022/03/01 05:40:00;;;;;;;;;44.00;36.00;;;;;9.18;52.59;102342.03;5085913;27;45290;-81
2022/03/01 05:42:26;;;;;;;;;44.00;33.00;;;;;9.19;52.30;102342.09;5086014;27;47247;-81
2022/03/01 05:44:51;;;;;;;;;41.75;35.25;;;;;9.21;51.82;102350.06;5083993;27;64607;-81
2022/03/01 05:47:17;;;;;;;;;42.50;34.50;;;;;9.23;52.13;102336.97;5090051;27;58722;-81
2022/03/01 05:49:42;;;;;;;;;36.25;32.75;;;;;9.27;52.27;102334.53;5096337;27;45307;-81
2022/03/01 05:52:07;;;;;;;;;43.50;33.50;;;;;9.29;52.05;102342.47;5096922;27;45411;-81
2022/03/01 05:54:33;;;;;;;;;45.25;37.25;;;;;9.30;52.20;102345.16;5098264;27;46361;-80
2022/03/01 05:56:58;;;;;;;;;41.00;35.25;;;;;9.31;52.24;102333.78;5096475;27;57777;-81
2022/03/01 05:59:23;;;;;;;;;38.00;29.25;;;;;9.28;52.19;102330.16;5080621;27;55359;-80
2022/03/01 06:01:49;;;;;;;;;40.25;36.75;;;;;9.31;52.24;102339.06;5097037;27;53307;-80
2022/03/01 06:04:14;;;;;;;;;38.00;36.50;;;;;9.31;52.46;102336.41;5085042;27;53887;-81
2022/03/01 06:06:40;;;;;;;;;43.00;36.75;;;;;9.31;52.53;102346.06;5077222;27;45946;-81
2022/03/01 06:09:05;;;;;;;;;51.50;36.25;;;;;9.32;52.48;102337.31;5088098;27;45476;-81
2022/03/01 06:11:31;;;;;;;;;47.25;35.00;;;;;9.32;52.78;102348.78;5091056;27;50884;-82
2022/03/01 06:13:57;;;;;;;;;47.00;37.50;;;;;9.31;52.67;102351.34;5088382;27;46503;-81
2022/03/01 06:16:22;;;;;;;;;50.75;37.25;;;;;9.30;52.58;102350.44;5087862;27;45490;-81
2022/03/01 06:18:47;;;;;;;;;42.25;38.50;;;;;9.31;52.41;102354.88;5079844;27;45776;-81
2022/03/01 06:21:13;;;;;;;;;50.00;40.75;;;;;9.31;52.66;102352.22;5091491;27;56151;-81
2022/03/01 06:23:38;;;;;;;;;55.25;41.75;;;;;9.33;52.36;102363.75;5097585;27;47611;-81
2022/03/01 06:26:04;;;;;;;;;53.75;41.75;;;;;9.29;52.61;102364.47;5077544;27;61928;-81
2022/03/01 06:28:30;;;;;;;;;61.25;47.75;;;;;9.32;52.41;102369.88;5077928;27;54547;-81
2022/03/01 06:30:55;;;;;;;;;58.50;45.25;;;;;9.30;52.67;102368.88;5082503;27;45460;-83
2022/03/01 06:33:20;;;;;;;;;61.75;46.00;;;;;9.32;52.30;102371.56;5090199;27;58477;-81
2022/03/01 06:35:46;;;;;;;;;60.00;47.00;;;;;9.31;52.19;102367.16;5096198;27;45503;-80
2022/03/01 06:38:11;;;;;;;;;62.50;47.75;;;;;9.33;52.48;102374.31;5085112;27;45690;-80
2022/03/01 06:40:37;;;;;;;;;70.50;49.50;;;;;9.34;52.12;102373.47;5090895;27;45958;-80
2022/03/01 06:43:03;;;;;;;;;60.75;44.75;;;;;9.29;52.08;102369.72;5088191;27;47759;-81
2022/03/01 06:45:28;;;;;;;;;61.75;49.75;;;;;9.29;52.27;102367.09;5087932;27;45303;-81
2022/03/01 06:47:53;;;;;;;;;63.50;49.50;;;;;9.36;52.37;102384.94;5086879;27;45487;-80
2022/03/01 06:50:19;;;;;;;;;61.75;47.50;;;;;9.38;52.29;102385.94;5089060;27;54344;-79
2022/03/01 06:52:44;;;;;;;;;63.00;48.50;;;;;9.37;52.49;102389.38;5060850;27;47952;-81
2022/03/01 06:55:10;;;;;;;;;63.50;47.75;;;;;9.40;52.31;102391.25;5082804;27;61905;-81
2022/03/01 06:57:38;;;;;;;;;65.50;48.00;;;;;9.43;52.71;102381.75;5096199;27;45420;-80
2022/03/01 07:00:03;;;;;;;;;62.25;49.25;;;;;9.38;53.30;102382.41;5095739;27;45547;-81
2022/03/01 07:02:29;;;;;;;;;68.75;48.75;;;;;9.28;53.41;102385.50;5082133;27;47389;-79
2022/03/01 07:04:55;;;;;;;;;62.00;47.00;;;;;9.18;53.70;102394.75;5083345;27;58696;-80
2022/03/01 07:07:22;;;;;;;;;66.00;48.25;;;;;9.03;53.73;102381.81;5086426;27;46342;-82
2022/03/01 07:09:47;;;;;;;;;58.25;49.00;;;;;9.05;53.46;102393.31;5086456;27;45458;-81
2022/03/01 07:12:12;;;;;;;;;63.75;45.75;;;;;9.09;53.42;102395.25;5104591;27;45427;-80
2022/03/01 07:14:38;;;;;;;;;68.75;47.00;;;;;9.06;53.30;102381.97;5078512;27;61167;-80
2022/03/01 07:17:03;;;;;;;;;60.75;47.75;;;;;9.13;53.64;102391.91;5081408;27;45447;-81
2022/03/01 07:19:29;;;;;;;;;61.00;47.00;;;;;9.22;53.61;102399.31;5064461;27;45655;-78
2022/03/01 07:21:54;;;;;;;;;64.00;45.75;;;;;9.27;53.60;102400.41;5087294;27;62486;-79
2022/03/01 07:24:19;;;;;;;;;64.25;51.00;;;;;9.32;53.38;102401.50;5084314;27;58110;-78
2022/03/01 07:26:45;;;;;;;;;65.00;49.50;;;;;9.37;53.27;102394.66;5089406;27;52350;-77
2022/03/01 07:29:10;;;;;;;;;67.75;49.50;;;;;9.40;53.07;102386.00;5085218;27;45622;-78
2022/03/01 07:31:35;;;;;;;;;63.00;49.00;;;;;9.43;52.97;102399.31;5085635;27;64722;-78
2022/03/01 07:34:02;;;;;;;;;64.75;48.75;;;;;9.46;53.05;102388.88;5076282;27;56402;-77
2022/03/01 07:36:27;;;;;;;;;66.75;49.25;;;;;9.44;52.99;102386.19;5095268;27;45928;-77
2022/03/01 07:38:52;;;;;;;;;65.50;51.00;;;;;9.51;53.01;102396.97;5105942;27;45347;-79
2022/03/01 07:41:18;;;;;;;;;63.75;49.50;;;;;9.53;53.06;102385.63;5089319;27;46799;-80
2022/03/01 07:43:43;;;;;;;;;62.50;50.75;;;;;9.58;53.14;102393.72;5083677;27;45524;-79
2022/03/01 07:46:11;;;;;;;;;64.00;47.25;;;;;9.62;53.00;102390.38;5092246;27;45434;-80
2022/03/01 07:48:41;;;;;;;;;65.75;52.25;;;;;9.66;52.76;102382.66;5091374;27;45569;-78
2022/03/01 07:51:06;;;;;;;;;62.75;50.00;;;;;9.71;52.66;102396.94;5090828;27;45556;-79
2022/03/01 07:53:31;;;;;;;;;71.25;51.75;;;;;9.77;52.99;102387.47;5105625;27;45450;-80
2022/03/01 07:55:57;;;;;;;;;61.25;47.75;;;;;9.83;52.49;102391.22;5086153;27;55850;-79
2022/03/01 07:58:22;;;;;;;;;67.50;50.00;;;;;9.86;52.66;102380.81;5085443;27;54128;-80
2022/03/01 08:00:47;;;;;;;;;70.25;53.25;;;;;9.90;52.48;102374.78;5087123;27;46495;-80
2022/03/01 08:03:13;;;;;;;;;69.50;51.25;;;;;10.01;52.56;102382.22;5081283;27;46278;-80
2022/03/01 08:05:38;;;;;;;;;65.50;51.50;;;;;10.04;52.31;102379.72;5086262;27;52788;-79
2022/03/01 08:08:04;;;;;;;;;67.00;50.75;;;;;10.11;52.19;102401.09;5089347;27;45598;-79
2022/03/01 08:10:29;;;;;;;;;65.25;50.75;;;;;10.19;52.10;102390.84;5090953;27;46492;-79
2022/03/01 08:12:56;;;;;;;;;67.00;51.50;;;;;10.23;52.18;102391.06;5084156;27;45533;-78
2022/03/01 08:15:25;;;;;;;;;66.75;50.75;;;;;10.30;51.72;102391.28;5091681;27;45562;-78
2022/03/01 08:17:51;;;;;;;;;65.25;49.50;;;;;10.36;52.12;102395.03;5093222;27;45649;-79
2022/03/01 08:20:16;;;;;;;;;64.25;50.25;;;;;10.35;51.76;102382.69;5094453;27;46417;-79
2022/03/01 08:22:42;;;;;;;;;69.00;51.00;;;;;10.46;51.68;102399.81;5100497;27;45646;-78
2022/03/01 08:25:07;;;;;;;;;65.75;50.00;;;;;10.51;51.60;102389.44;5087050;27;45626;-79
2022/03/01 08:27:33;;;;;;;;;67.50;51.25;;;;;10.57;51.67;102387.00;5084116;27;45417;-79
2022/03/01 08:29:58;;;;;;;;;64.50;49.50;;;;;10.62;51.57;102385.41;5084357;27;46882;-79
2022/03/01 08:32:23;;;;;;;;;63.00;51.25;;;;;10.68;51.60;102390.03;5081946;27;56194;-79
2022/03/01 08:34:49;;;;;;;;;67.00;52.00;;;;;10.74;51.59;102393.78;5086705;27;54184;-79
2022/03/01 08:37:14;;;;;;;;;64.00;47.50;;;;;10.80;51.31;102389.56;5085050;27;53419;-79
2022/03/01 08:39:40;;;;;;;;;61.50;47.25;;;;;10.87;51.08;102394.22;5076457;27;47681;-80
2022/03/01 08:42:05;;;;;;;;;68.00;51.25;;;;;10.93;51.48;102402.38;5086814;27;49523;-79
2022/03/01 08:44:31;;;;;;;;;63.50;50.00;;;;;10.99;51.22;102398.19;5091887;27;45396;-79
2022/03/01 08:46:56;;;;;;;;;65.75;46.75;;;;;11.05;50.89;102400.13;5090103;27;45651;-79
2022/03/01 08:49:21;;;;;;;;;67.25;49.50;;;;;11.06;50.84;102394.00;5095360;27;47241;-78
2022/03/01 08:51:47;;;;;;;;;66.25;49.50;;;;;11.17;50.84;102399.63;5095010;27;45417;-80
2022/03/01 08:54:12;;;;;;;;;65.75;48.25;;;;;11.19;50.58;102409.44;5092055;27;47941;-79
2022/03/01 08:56:38;;;;;;;;;62.00;50.00;;;;;11.23;50.73;102403.38;5107650;27;51917;-77
2022/03/01 08:59:05;;;;;;;;;64.50;50.75;;;;;11.22;50.80;102392.75;5086987;27;48090;-79
2022/03/01 09:01:30;;;;;;;;;66.50;51.50;;;;;11.22;50.41;102391.00;5091874;27;45611;-81
2022/03/01 09:03:56;;;;;;;;;58.00;48.25;;;;;11.28;50.48;102396.50;5082370;27;45497;-77
2022/03/01 09:06:21;;;;;;;;;68.75;51.50;;;;;11.31;50.34;102395.72;5092795;27;45361;-77
2022/03/01 09:08:47;;;;;;;;;67.50;51.00;;;;;11.34;50.34;102401.09;5087219;27;47228;-77
2022/03/01 09:11:12;;;;;;;;;65.75;53.00;;;;;11.41;50.34;102396.94;5093515;27;61968;-79
2022/03/01 09:13:38;;;;;;;;;69.00;52.75;;;;;11.48;50.54;102402.44;5089069;27;45540;-79
2022/03/01 09:16:05;;;;;;;;;66.50;50.75;;;;;11.52;50.29;102385.84;5085253;27;45574;-80
2022/03/01 09:18:30;;;;;;;;;61.00;48.00;;;;;11.65;50.16;102389.75;5109862;27;46471;-79
2022/03/01 09:20:55;;;;;;;;;65.75;47.75;;;;;11.70;49.80;102380.22;5091262;27;45478;-79
2022/03/01 09:23:21;;;;;;;;;59.50;49.50;;;;;11.85;49.49;102389.53;5087663;27;45432;-77
2022/03/01 09:25:46;;;;;;;;;55.75;44.25;;;;;11.92;49.32;102383.56;5094480;27;51446;-78
2022/03/01 09:28:12;;;;;;;;;56.00;41.75;;;;;12.03;49.27;102388.31;5087724;27;45759;-78
2022/03/01 09:30:37;;;;;;;;;58.25;43.00;;;;;12.14;48.92;102398.34;5093447;27;45455;-79
2022/03/01 09:33:02;;;;;;;;;50.50;40.25;;;;;12.23;48.79;102388.03;5089685;27;53872;-80
2022/03/01 09:35:28;;;;;;;;;52.25;41.25;;;;;12.32;48.44;102388.28;5080787;27;45686;-78
2022/03/01 09:37:53;;;;;;;;;55.00;43.25;;;;;12.43;48.54;102384.19;5088468;27;46349;-79
2022/03/01 09:40:19;;;;;;;;;52.75;38.75;;;;;12.52;48.17;102381.81;5096959;27;60894;-79
2022/03/01 09:42:44;;;;;;;;;54.25;40.50;;;;;12.63;48.02;102378.56;5088177;27;45493;-79
2022/03/01 09:45:11;;;;;;;;;56.00;41.25;;;;;12.70;47.35;102384.06;5082218;27;45424;-77
2022/03/01 09:47:38;;;;;;;;;46.50;39.25;;;;;12.75;47.53;102381.53;5079294;27;47327;-79
2022/03/01 09:50:10;;;;;;;;;52.00;40.75;;;;;12.80;47.44;102387.88;5074205;27;45553;-78
2022/03/01 09:52:35;;;;;;;;;52.00;40.75;;;;;12.81;46.44;102369.34;5073549;27;45523;-79
2022/03/01 09:55:01;;;;;;;;;50.00;40.50;;;;;12.89;46.59;102376.59;5069447;27;45674;-79
2022/03/01 09:57:26;;;;;;;;;51.50;41.50;;;;;12.90;47.04;102376.66;5086779;27;46475;-79
2022/03/01 09:59:52;;;;;;;;;51.00;41.75;;;;;12.98;46.75;102400.69;5074489;27;55840;-78
2022/03/01 10:02:17;;;;;;;;;52.25;41.00;;;;;12.92;46.67;102377.56;5091673;27;46867;-78
2022/03/01 10:04:58;;;;;;;;;54.00;42.75;;;;;13.12;46.85;102399.31;5092212;27;58116;-79
2022/03/01 10:07:27;;;;;;;;;55.75;42.75;;;;;13.22;46.62;102390.75;5095483;27;48178;-79
2022/03/01 10:09:53;;;;;;;;;58.25;44.25;;;;;13.30;46.35;102386.53;5084619;27;45429;-79
2022/03/01 10:12:25;;;;;;;;;57.25;46.00;;;;;13.40;45.95;102385.00;5106161;27;45439;-78
2022/03/01 10:15:03;;;;;;;;;55.00;43.75;;;;;13.47;46.07;102383.38;5091607;27;45472;-78
2022/03/01 10:17:35;;;;;;;;;66.00;46.50;;;;;13.56;45.48;102384.50;5090578;27;46940;-80
2022/03/01 10:20:15;;;;;;;;;54.50;43.25;;;;;13.66;45.62;102382.06;5092527;27;46833;-79
2022/03/01 10:22:47;;;;;;;;;60.25;47.00;;;;;13.76;45.62;102374.34;5085851;27;45836;-77
2022/03/01 10:25:15;;;;;;;;;56.25;45.00;;;;;13.85;45.73;102368.38;5092388;27;45478;-77
2022/03/01 10:27:40;;;;;;;;;55.75;44.25;;;;;14.09;45.24;102373.31;5088285;27;47489;-79
2022/03/01 10:30:06;;;;;;;;;55.75;44.75;;;;;14.13;44.87;102354.81;5083568;27;60547;-78
2022/03/01 10:32:32;;;;;;;;;58.00;45.75;;;;;14.36;45.01;102373.88;5086086;27;45497;-78
2022/03/01 10:35:08;;;;;;;;;53.75;42.00;;;;;14.53;43.89;102386.63;5094701;27;45423;-78
2022/03/01 10:37:35;;;;;;;;;54.00;44.75;;;;;14.53;44.30;102360.94;5077784;27;45689;-79
2022/03/01 10:40:16;;;;;;;;;57.50;45.25;;;;;14.57;44.85;102375.19;5093315;27;45653;-79
2022/03/01 10:42:42;;;;;;;;;59.25;44.00;;;;;14.49;44.19;102372.41;5089767;27;45618;-79
2022/03/01 10:45:09;;;;;;;;;50.25;40.25;;;;;14.38;43.15;102365.91;5088121;27;45362;-79
2022/03/01 10:47:35;;;;;;;;;53.50;42.25;;;;;14.35;43.90;102372.06;5091025;27;46721;-80
2022/03/01 10:50:06;;;;;;;;;55.00;41.25;;;;;14.36;44.29;102370.31;5083784;27;45461;-79
2022/03/01 10:52:35;;;;;;;;;56.25;46.25;;;;;14.40;44.41;102370.41;5088453;27;45488;-80
2022/03/01 10:55:01;;;;;;;;;50.75;41.50;;;;;14.49;44.85;102366.16;5076379;27;45608;-80
2022/03/01 10:57:26;;;;;;;;;56.00;44.25;;;;;14.59;43.89;102354.84;5169541;22;46416;-80
2022/03/01 10:59:53;;;;;;;;;56.00;43.00;;;;;14.75;44.23;102346.28;5046749;28;45538;-80
2022/03/01 11:02:19;;;;;;;;;55.00;43.25;;;;;14.90;43.92;102349.22;5043599;28;45324;-80
2022/03/01 11:04:45;;;;;;;;;53.75;41.50;;;;;15.08;43.50;102345.09;5027653;28;45426;-78
2022/03/01 11:07:11;;;;;;;;;52.25;39.75;;;;;15.22;43.24;102342.66;5052529;28;46865;-79
2022/03/01 11:09:37;;;;;;;;;50.00;38.00;;;;;15.35;42.97;102345.53;5047173;28;45447;-80
2022/03/01 11:12:05;;;;;;;;;47.25;38.50;;;;;15.43;42.39;102340.31;5029489;28;45460;-79